sensor_id;sensor_type;location;lat;lon;timestamp;temperature;humidity
33095;DHT22;19459;53.044;8.910;2023-03-03T00:02:26;2.50;99.90
33095;DHT22;19459;53.044;8.910;2023-03-03T00:04:51;2.50;99.90
33095;DHT22;19459;53.044;8.910;2023-03-03T00:07:17;2.50;99.90
33095;DHT22;19459;53.044;8.910;2023-03-03T00:09:48;2.40;99.90
33095;DHT22;19459;53.044;8.910;2023-03-03T00:12:24;2.40;99.90
33095;DHT22;19459;53.044;8.910;2023-03-03T00:14:52;2.40;99.90
33095;DHT22;19459;53.044;8.910;2023-03-03T00:17:29;2.40;99.90
33095;DHT22;19459;53.044;8.910;2023-03-03T00:19:56;2.50;99.90
33095;DHT22;19459;53.044;8.910;2023-03-03T00:22:29;2.50;99.90
33095;DHT22;19459;53.044;8.910;2023-03-03T00:25:27;2.40;99.90
33095;DHT22;19459;53.044;8.910;2023-03-03T00:27:55;2.50;99.90
33095;DHT22;19459;53.044;8.910;2023-03-03T00:30:26;2.50;99.90
33095;DHT22;19459;53.044;8.910;2023-03-03T00:32:53;2.50;99.90
33095;DHT22;19459;53.044;8.910;2023-03-03T00:35:29;2.50;99.90
33095;DHT22;19459;53.044;8.910;2023-03-03T00:38:01;2.50;99.90
33095;DHT22;19459;53.044;8.910;2023-03-03T00:40:37;2.50;99.90
33095;DHT22;19459;53.044;8.910;2023-03-03T00:43:25;2.50;99.90
33095;DHT22;19459;53.044;8.910;2023-03-03T00:45:56;2.50;99.90
33095;DHT22;19459;53.044;8.910;2023-03-03T00:53:54;2.50;99.90
33095;DHT22;19459;53.044;8.910;2023-03-03T00:56:21;2.50;99.90
33095;DHT22;19459;53.044;8.910;2023-03-03T00:58:47;2.50;99.90
33095;DHT22;19459;53.044;8.910;2023-03-03T01:01:15;2.50;99.90
33095;DHT22;19459;53.044;8.910;2023-03-03T01:03:41;2.50;99.90
33095;DHT22;19459;53.044;8.910;2023-03-03T01:06:08;2.50;99.90
33095;DHT22;19459;53.044;8.910;2023-03-03T01:08:35;2.50;99.90
33095;DHT22;19459;53.044;8.910;2023-03-03T01:11:20;2.50;99.90
33095;DHT22;19459;53.044;8.910;2023-03-03T01:13:49;2.50;99.90
33095;DHT22;19459;53.044;8.910;2023-03-03T01:16:16;2.50;99.90
33095;DHT22;19459;53.044;8.910;2023-03-03T01:18:42;2.60;99.90
33095;DHT22;19459;53.044;8.910;2023-03-03T01:21:09;2.50;99.90
33095;DHT22;19459;53.044;8.910;2023-03-03T01:23:35;2.50;99.90
33095;DHT22;19459;53.044;8.910;2023-03-03T01:26:01;2.50;99.90
33095;DHT22;19459;53.044;8.910;2023-03-03T01:28:28;2.50;99.90
33095;DHT22;19459;53.044;8.910;2023-03-03T01:30:53;2.50;99.90
33095;DHT22;19459;53.044;8.910;2023-03-03T01:33:19;2.50;99.90
33095;DHT22;19459;53.044;8.910;2023-03-03T01:35:46;2.50;99.90
33095;DHT22;19459;53.044;8.910;2023-03-03T01:38:13;2.50;99.90
33095;DHT22;19459;53.044;8.910;2023-03-03T01:40:40;2.50;99.90
33095;DHT22;19459;53.044;8.910;2023-03-03T01:43:06;2.50;99.90
33095;DHT22;19459;53.044;8.910;2023-03-03T01:51:18;2.50;99.90
33095;DHT22;19459;53.044;8.910;2023-03-03T01:53:52;2.40;99.90
33095;DHT22;19459;53.044;8.910;2023-03-03T01:56:20;2.50;99.90
33095;DHT22;19459;53.044;8.910;2023-03-03T01:59:04;2.50;99.90
33095;DHT22;19459;53.044;8.910;2023-03-03T02:01:32;2.50;99.90
33095;DHT22;19459;53.044;8.910;2023-03-03T02:03:59;2.50;99.90
33095;DHT22;19459;53.044;8.910;2023-03-03T02:06:29;2.50;99.90
33095;DHT22;19459;53.044;8.910;2023-03-03T02:12:04;2.50;99.90
33095;DHT22;19459;53.044;8.910;2023-03-03T02:14:33;2.50;99.90
33095;DHT22;19459;53.044;8.910;2023-03-03T02:16:59;2.50;99.90
33095;DHT22;19459;53.044;8.910;2023-03-03T02:19:46;2.50;99.90
33095;DHT22;19459;53.044;8.910;2023-03-03T02:22:22;2.50;99.90
33095;DHT22;19459;53.044;8.910;2023-03-03T02:24:59;2.50;99.90
33095;DHT22;19459;53.044;8.910;2023-03-03T02:27:27;2.60;99.90
33095;DHT22;19459;53.044;8.910;2023-03-03T02:29:55;2.60;99.90
33095;DHT22;19459;53.044;8.910;2023-03-03T02:32:22;2.50;99.90
33095;DHT22;19459;53.044;8.910;2023-03-03T02:34:50;2.50;99.90
33095;DHT22;19459;53.044;8.910;2023-03-03T02:37:18;2.50;99.90
33095;DHT22;19459;53.044;8.910;2023-03-03T02:39:45;2.60;99.90
33095;DHT22;19459;53.044;8.910;2023-03-03T02:42:23;2.50;99.90
33095;DHT22;19459;53.044;8.910;2023-03-03T02:44:51;2.50;99.90
33095;DHT22;19459;53.044;8.910;2023-03-03T02:47:17;2.50;99.90
33095;DHT22;19459;53.044;8.910;2023-03-03T02:49:43;2.50;99.90
33095;DHT22;19459;53.044;8.910;2023-03-03T02:52:10;2.50;99.90
33095;DHT22;19459;53.044;8.910;2023-03-03T02:54:37;2.50;99.90
33095;DHT22;19459;53.044;8.910;2023-03-03T02:57:04;2.50;99.90
33095;DHT22;19459;53.044;8.910;2023-03-03T02:59:30;2.50;99.90
33095;DHT22;19459;53.044;8.910;2023-03-03T03:01:59;2.50;99.90
33095;DHT22;19459;53.044;8.910;2023-03-03T03:04:26;2.50;99.90
33095;DHT22;19459;53.044;8.910;2023-03-03T03:06:53;2.50;99.90
33095;DHT22;19459;53.044;8.910;2023-03-03T03:09:20;2.40;99.90
33095;DHT22;19459;53.044;8.910;2023-03-03T03:11:47;2.50;99.90
33095;DHT22;19459;53.044;8.910;2023-03-03T03:14:13;2.50;99.90
33095;DHT22;19459;53.044;8.910;2023-03-03T03:16:40;2.50;99.90
33095;DHT22;19459;53.044;8.910;2023-03-03T03:19:06;2.50;99.90
33095;DHT22;19459;53.044;8.910;2023-03-03T03:21:32;2.50;99.90
33095;DHT22;19459;53.044;8.910;2023-03-03T03:23:58;2.50;99.90
33095;DHT22;19459;53.044;8.910;2023-03-03T03:26:25;2.30;99.90
33095;DHT22;19459;53.044;8.910;2023-03-03T03:28:51;2.30;99.90
33095;DHT22;19459;53.044;8.910;2023-03-03T03:31:18;2.40;99.90
33095;DHT22;19459;53.044;8.910;2023-03-03T03:33:45;2.40;99.90
33095;DHT22;19459;53.044;8.910;2023-03-03T03:36:11;2.30;99.90
33095;DHT22;19459;53.044;8.910;2023-03-03T03:38:38;2.40;99.90
33095;DHT22;19459;53.044;8.910;2023-03-03T03:41:04;2.40;99.90
33095;DHT22;19459;53.044;8.910;2023-03-03T03:43:31;2.40;99.90
33095;DHT22;19459;53.044;8.910;2023-03-03T03:45:57;2.40;99.90
33095;DHT22;19459;53.044;8.910;2023-03-03T03:48:23;2.50;99.90
33095;DHT22;19459;53.044;8.910;2023-03-03T03:50:49;2.50;99.90
33095;DHT22;19459;53.044;8.910;2023-03-03T03:53:15;2.50;99.90
33095;DHT22;19459;53.044;8.910;2023-03-03T03:55:41;2.50;99.90
33095;DHT22;19459;53.044;8.910;2023-03-03T03:58:15;2.50;99.90
33095;DHT22;19459;53.044;8.910;2023-03-03T04:00:43;2.50;99.90
33095;DHT22;19459;53.044;8.910;2023-03-03T04:03:10;2.50;99.90
33095;DHT22;19459;53.044;8.910;2023-03-03T04:05:36;2.50;99.90
33095;DHT22;19459;53.044;8.910;2023-03-03T04:08:02;2.50;99.90
33095;DHT22;19459;53.044;8.910;2023-03-03T04:10:28;2.50;99.90
33095;DHT22;19459;53.044;8.910;2023-03-03T04:12:54;2.50;99.90
33095;DHT22;19459;53.044;8.910;2023-03-03T04:15:20;2.50;99.90
33095;DHT22;19459;53.044;8.910;2023-03-03T04:17:45;2.50;99.90
33095;DHT22;19459;53.044;8.910;2023-03-03T04:20:15;2.50;99.90
33095;DHT22;19459;53.044;8.910;2023-03-03T04:22:41;2.40;99.90
33095;DHT22;19459;53.044;8.910;2023-03-03T04:25:09;2.40;99.90
33095;DHT22;19459;53.044;8.910;2023-03-03T04:27:37;2.40;99.90
33095;DHT22;19459;53.044;8.910;2023-03-03T04:30:04;2.50;99.90
33095;DHT22;19459;53.044;8.910;2023-03-03T04:32:31;2.40;99.90
33095;DHT22;19459;53.044;8.910;2023-03-03T04:34:58;2.40;99.90
33095;DHT22;19459;53.044;8.910;2023-03-03T04:37:24;2.40;99.90
33095;DHT22;19459;53.044;8.910;2023-03-03T04:39:50;2.40;99.90
33095;DHT22;19459;53.044;8.910;2023-03-03T04:42:16;2.50;99.90
33095;DHT22;19459;53.044;8.910;2023-03-03T04:44:42;2.40;99.90
33095;DHT22;19459;53.044;8.910;2023-03-03T04:47:07;2.40;99.90
33095;DHT22;19459;53.044;8.910;2023-03-03T04:49:33;2.40;99.90
33095;DHT22;19459;53.044;8.910;2023-03-03T04:51:59;2.40;99.90
33095;DHT22;19459;53.044;8.910;2023-03-03T04:54:25;2.40;99.90
33095;DHT22;19459;53.044;8.910;2023-03-03T04:56:51;2.30;99.90
33095;DHT22;19459;53.044;8.910;2023-03-03T04:59:16;2.30;99.90
33095;DHT22;19459;53.044;8.910;2023-03-03T05:01:42;2.40;99.90
33095;DHT22;19459;53.044;8.910;2023-03-03T05:04:08;2.30;99.90
33095;DHT22;19459;53.044;8.910;2023-03-03T05:06:34;2.40;99.90
33095;DHT22;19459;53.044;8.910;2023-03-03T05:09:00;2.40;99.90
33095;DHT22;19459;53.044;8.910;2023-03-03T05:11:25;2.40;99.90
33095;DHT22;19459;53.044;8.910;2023-03-03T05:13:51;2.40;99.90
33095;DHT22;19459;53.044;8.910;2023-03-03T05:16:17;2.40;99.90
33095;DHT22;19459;53.044;8.910;2023-03-03T05:18:43;2.40;99.90
33095;DHT22;19459;53.044;8.910;2023-03-03T05:21:10;2.40;99.90
33095;DHT22;19459;53.044;8.910;2023-03-03T05:23:36;2.40;99.90
33095;DHT22;19459;53.044;8.910;2023-03-03T05:26:02;2.50;99.90
33095;DHT22;19459;53.044;8.910;2023-03-03T05:28:28;2.50;99.90
33095;DHT22;19459;53.044;8.910;2023-03-03T05:30:54;2.50;99.90
33095;DHT22;19459;53.044;8.910;2023-03-03T05:33:20;2.50;99.90
33095;DHT22;19459;53.044;8.910;2023-03-03T05:35:45;2.50;99.90
33095;DHT22;19459;53.044;8.910;2023-03-03T05:38:11;2.40;99.90
33095;DHT22;19459;53.044;8.910;2023-03-03T05:40:37;2.50;99.90
33095;DHT22;19459;53.044;8.910;2023-03-03T05:43:03;2.50;99.90
33095;DHT22;19459;53.044;8.910;2023-03-03T05:45:29;2.40;99.90
33095;DHT22;19459;53.044;8.910;2023-03-03T05:47:55;2.40;99.90
33095;DHT22;19459;53.044;8.910;2023-03-03T05:50:22;2.50;99.90
33095;DHT22;19459;53.044;8.910;2023-03-03T05:52:49;2.40;99.90
33095;DHT22;19459;53.044;8.910;2023-03-03T05:55:15;2.50;99.90
33095;DHT22;19459;53.044;8.910;2023-03-03T05:57:42;2.50;99.90
33095;DHT22;19459;53.044;8.910;2023-03-03T06:00:08;2.50;99.90
33095;DHT22;19459;53.044;8.910;2023-03-03T06:02:37;2.50;99.90
33095;DHT22;19459;53.044;8.910;2023-03-03T06:05:04;2.50;99.90
33095;DHT22;19459;53.044;8.910;2023-03-03T06:07:30;2.50;99.90
33095;DHT22;19459;53.044;8.910;2023-03-03T06:09:56;2.50;99.90
33095;DHT22;19459;53.044;8.910;2023-03-03T06:12:22;2.50;99.90
33095;DHT22;19459;53.044;8.910;2023-03-03T06:14:47;2.50;99.90
33095;DHT22;19459;53.044;8.910;2023-03-03T06:17:13;2.50;99.90
33095;DHT22;19459;53.044;8.910;2023-03-03T06:19:39;2.50;99.90
33095;DHT22;19459;53.044;8.910;2023-03-03T06:22:06;2.60;99.90
33095;DHT22;19459;53.044;8.910;2023-03-03T06:24:33;2.50;99.90
33095;DHT22;19459;53.044;8.910;2023-03-03T06:26:59;2.50;99.90
33095;DHT22;19459;53.044;8.910;2023-03-03T06:29:26;2.60;99.90
33095;DHT22;19459;53.044;8.910;2023-03-03T06:31:52;2.50;99.90
33095;DHT22;19459;53.044;8.910;2023-03-03T06:34:18;2.50;99.90
33095;DHT22;19459;53.044;8.910;2023-03-03T06:36:44;2.60;99.90
33095;DHT22;19459;53.044;8.910;2023-03-03T06:39:10;2.60;99.90
33095;DHT22;19459;53.044;8.910;2023-03-03T06:41:36;2.60;99.90
33095;DHT22;19459;53.044;8.910;2023-03-03T06:44:02;2.70;99.90
33095;DHT22;19459;53.044;8.910;2023-03-03T06:46:28;2.70;99.90
33095;DHT22;19459;53.044;8.910;2023-03-03T06:48:54;2.70;99.90
33095;DHT22;19459;53.044;8.910;2023-03-03T06:51:33;2.70;99.90
33095;DHT22;19459;53.044;8.910;2023-03-03T06:54:05;2.70;99.90
33095;DHT22;19459;53.044;8.910;2023-03-03T06:56:36;2.80;99.90
33095;DHT22;19459;53.044;8.910;2023-03-03T06:59:09;2.80;99.90
33095;DHT22;19459;53.044;8.910;2023-03-03T07:01:36;2.80;99.90
33095;DHT22;19459;53.044;8.910;2023-03-03T07:04:28;2.80;99.90
33095;DHT22;19459;53.044;8.910;2023-03-03T07:07:14;2.90;99.90
33095;DHT22;19459;53.044;8.910;2023-03-03T07:09:52;2.90;99.90
33095;DHT22;19459;53.044;8.910;2023-03-03T07:12:22;2.90;99.90
33095;DHT22;19459;53.044;8.910;2023-03-03T07:17:47;2.90;99.90
33095;DHT22;19459;53.044;8.910;2023-03-03T07:20:22;2.90;99.90
33095;DHT22;19459;53.044;8.910;2023-03-03T07:22:49;3.00;99.90
33095;DHT22;19459;53.044;8.910;2023-03-03T07:25:29;3.00;99.90
33095;DHT22;19459;53.044;8.910;2023-03-03T07:28:31;3.00;99.90
33095;DHT22;19459;53.044;8.910;2023-03-03T07:30:57;3.00;99.90
33095;DHT22;19459;53.044;8.910;2023-03-03T07:33:27;3.00;99.90
33095;DHT22;19459;53.044;8.910;2023-03-03T07:36:00;3.00;99.90
33095;DHT22;19459;53.044;8.910;2023-03-03T07:38:37;3.10;99.90
33095;DHT22;19459;53.044;8.910;2023-03-03T07:41:17;3.10;99.90
33095;DHT22;19459;53.044;8.910;2023-03-03T07:44:04;3.10;99.90
33095;DHT22;19459;53.044;8.910;2023-03-03T07:46:47;3.10;99.90
33095;DHT22;19459;53.044;8.910;2023-03-03T07:49:33;3.10;99.90
33095;DHT22;19459;53.044;8.910;2023-03-03T07:52:01;3.20;99.90
33095;DHT22;19459;53.044;8.910;2023-03-03T07:54:34;3.20;99.90
33095;DHT22;19459;53.044;8.910;2023-03-03T07:59:54;3.20;99.90
33095;DHT22;19459;53.044;8.910;2023-03-03T08:08:26;3.30;99.90
33095;DHT22;19459;53.044;8.910;2023-03-03T08:10:58;3.40;99.90
33095;DHT22;19459;53.044;8.910;2023-03-03T08:18:36;3.50;99.90
33095;DHT22;19459;53.044;8.910;2023-03-03T08:21:12;3.50;99.90
33095;DHT22;19459;53.044;8.910;2023-03-03T08:23:38;3.60;99.90
33095;DHT22;19459;53.044;8.910;2023-03-03T08:26:04;3.70;99.90
33095;DHT22;19459;53.044;8.910;2023-03-03T08:28:30;3.80;99.90
33095;DHT22;19459;53.044;8.910;2023-03-03T08:30:56;3.80;99.90
33095;DHT22;19459;53.044;8.910;2023-03-03T08:33:21;3.80;99.90
33095;DHT22;19459;53.044;8.910;2023-03-03T08:35:47;3.80;99.90
33095;DHT22;19459;53.044;8.910;2023-03-03T08:38:16;3.80;99.90
33095;DHT22;19459;53.044;8.910;2023-03-03T08:40:43;3.90;99.90
33095;DHT22;19459;53.044;8.910;2023-03-03T08:43:10;3.90;99.90
33095;DHT22;19459;53.044;8.910;2023-03-03T08:45:38;3.90;99.90
33095;DHT22;19459;53.044;8.910;2023-03-03T08:48:04;3.90;99.90
33095;DHT22;19459;53.044;8.910;2023-03-03T08:50:30;4.10;99.90
33095;DHT22;19459;53.044;8.910;2023-03-03T08:52:56;4.30;99.90
33095;DHT22;19459;53.044;8.910;2023-03-03T08:55:22;4.30;99.90
33095;DHT22;19459;53.044;8.910;2023-03-03T08:57:48;4.40;99.90
33095;DHT22;19459;53.044;8.910;2023-03-03T09:00:15;4.60;99.90
33095;DHT22;19459;53.044;8.910;2023-03-03T09:02:42;4.90;99.90
33095;DHT22;19459;53.044;8.910;2023-03-03T09:05:08;4.90;99.90
33095;DHT22;19459;53.044;8.910;2023-03-03T09:07:34;5.00;99.90
33095;DHT22;19459;53.044;8.910;2023-03-03T09:10:00;5.10;99.90
33095;DHT22;19459;53.044;8.910;2023-03-03T09:15:10;4.90;99.90
33095;DHT22;19459;53.044;8.910;2023-03-03T09:17:39;5.00;99.90
33095;DHT22;19459;53.044;8.910;2023-03-03T09:20:43;5.10;99.90
33095;DHT22;19459;53.044;8.910;2023-03-03T09:26:34;5.30;99.90
33095;DHT22;19459;53.044;8.910;2023-03-03T09:34:40;5.80;99.90
33095;DHT22;19459;53.044;8.910;2023-03-03T09:37:33;5.90;99.90
33095;DHT22;19459;53.044;8.910;2023-03-03T09:48:34;6.10;99.90
33095;DHT22;19459;53.044;8.910;2023-03-03T09:51:18;6.10;99.90
33095;DHT22;19459;53.044;8.910;2023-03-03T09:57:23;6.20;99.90
33095;DHT22;19459;53.044;8.910;2023-03-03T10:06:28;6.20;99.90
33095;DHT22;19459;53.044;8.910;2023-03-03T10:25:47;6.90;99.90
33095;DHT22;19459;53.044;8.910;2023-03-03T10:49:34;7.20;99.90
33095;DHT22;19459;53.044;8.910;2023-03-03T11:03:53;7.00;99.90
33095;DHT22;19459;53.044;8.910;2023-03-03T11:06:25;6.90;99.90
33095;DHT22;19459;53.044;8.910;2023-03-03T11:08:59;7.10;99.90
33095;DHT22;19459;53.044;8.910;2023-03-03T11:17:42;8.10;99.90
33095;DHT22;19459;53.044;8.910;2023-03-03T11:26:59;9.60;99.90
33095;DHT22;19459;53.044;8.910;2023-03-03T11:33:06;10.10;99.90
33095;DHT22;19459;53.044;8.910;2023-03-03T11:39:09;10.20;99.90
33095;DHT22;19459;53.044;8.910;2023-03-03T11:44:55;9.70;99.90
33095;DHT22;19459;53.044;8.910;2023-03-03T11:50:01;9.70;99.90
33095;DHT22;19459;53.044;8.910;2023-03-03T11:55:59;9.70;99.90
33095;DHT22;19459;53.044;8.910;2023-03-03T11:58:39;8.90;99.90
33095;DHT22;19459;53.044;8.910;2023-03-03T12:01:32;8.60;99.90
33095;DHT22;19459;53.044;8.910;2023-03-03T12:04:14;8.70;99.90
33095;DHT22;19459;53.044;8.910;2023-03-03T12:09:48;8.40;99.90
33095;DHT22;19459;53.044;8.910;2023-03-03T12:18:31;8.50;99.90
33095;DHT22;19459;53.044;8.910;2023-03-03T12:23:42;9.30;99.90
33095;DHT22;19459;53.044;8.910;2023-03-03T12:26:17;9.70;99.90
33095;DHT22;19459;53.044;8.910;2023-03-03T12:28:59;9.80;99.90
33095;DHT22;19459;53.044;8.910;2023-03-03T12:37:54;9.00;99.90
33095;DHT22;19459;53.044;8.910;2023-03-03T12:40:33;8.90;99.90
33095;DHT22;19459;53.044;8.910;2023-03-03T12:46:04;8.60;99.90
33095;DHT22;19459;53.044;8.910;2023-03-03T12:48:39;8.40;99.90
33095;DHT22;19459;53.044;8.910;2023-03-03T12:51:51;8.30;99.90
33095;DHT22;19459;53.044;8.910;2023-03-03T12:57:15;8.40;99.90
33095;DHT22;19459;53.044;8.910;2023-03-03T13:00:10;8.50;99.90
33095;DHT22;19459;53.044;8.910;2023-03-03T13:06:13;8.50;99.90
33095;DHT22;19459;53.044;8.910;2023-03-03T13:11:38;8.40;99.90
33095;DHT22;19459;53.044;8.910;2023-03-03T13:17:33;8.50;99.90
33095;DHT22;19459;53.044;8.910;2023-03-03T13:20:05;8.40;99.90
33095;DHT22;19459;53.044;8.910;2023-03-03T13:22:50;8.30;99.90
33095;DHT22;19459;53.044;8.910;2023-03-03T13:25:50;8.30;99.90
33095;DHT22;19459;53.044;8.910;2023-03-03T13:31:23;8.20;99.90
33095;DHT22;19459;53.044;8.910;2023-03-03T13:33:58;8.30;99.90
33095;DHT22;19459;53.044;8.910;2023-03-03T13:36:34;8.30;99.90
33095;DHT22;19459;53.044;8.910;2023-03-03T13:42:32;8.20;99.90
33095;DHT22;19459;53.044;8.910;2023-03-03T13:45:16;8.00;99.90
33095;DHT22;19459;53.044;8.910;2023-03-03T13:50:51;8.00;99.90
33095;DHT22;19459;53.044;8.910;2023-03-03T13:53:49;8.00;99.90
33095;DHT22;19459;53.044;8.910;2023-03-03T13:56:32;8.00;99.90
33095;DHT22;19459;53.044;8.910;2023-03-03T14:07:32;7.90;99.90
33095;DHT22;19459;53.044;8.910;2023-03-03T14:10:24;8.00;99.90
33095;DHT22;19459;53.044;8.910;2023-03-03T14:15:33;8.10;99.90
33095;DHT22;19459;53.044;8.910;2023-03-03T14:20:57;8.00;99.90
33095;DHT22;19459;53.044;8.910;2023-03-03T14:26:13;8.00;99.90
33095;DHT22;19459;53.044;8.910;2023-03-03T14:28:45;8.00;99.90
33095;DHT22;19459;53.044;8.910;2023-03-03T14:31:25;8.00;99.90
33095;DHT22;19459;53.044;8.910;2023-03-03T14:33:57;8.00;99.90
33095;DHT22;19459;53.044;8.910;2023-03-03T14:36:35;7.90;99.90
33095;DHT22;19459;53.044;8.910;2023-03-03T14:42:00;7.70;99.90
33095;DHT22;19459;53.044;8.910;2023-03-03T14:44:31;7.70;99.90
33095;DHT22;19459;53.044;8.910;2023-03-03T14:49:51;7.60;99.90
33095;DHT22;19459;53.044;8.910;2023-03-03T14:52:30;7.60;99.90
33095;DHT22;19459;53.044;8.910;2023-03-03T14:55:00;7.60;99.90
33095;DHT22;19459;53.044;8.910;2023-03-03T15:05:26;7.50;99.90
33095;DHT22;19459;53.044;8.910;2023-03-03T15:10:39;7.50;99.90
33095;DHT22;19459;53.044;8.910;2023-03-03T15:16:10;7.50;99.90
33095;DHT22;19459;53.044;8.910;2023-03-03T15:22:09;7.40;99.90
33095;DHT22;19459;53.044;8.910;2023-03-03T15:27:27;7.40;99.90
33095;DHT22;19459;53.044;8.910;2023-03-03T15:30:31;7.40;99.90
33095;DHT22;19459;53.044;8.910;2023-03-03T15:33:02;7.40;99.90
33095;DHT22;19459;53.044;8.910;2023-03-03T15:35:51;7.40;99.90
33095;DHT22;19459;53.044;8.910;2023-03-03T15:42:03;7.30;99.90
33095;DHT22;19459;53.044;8.910;2023-03-03T15:56:55;7.20;99.90
33095;DHT22;19459;53.044;8.910;2023-03-03T16:04:57;7.20;99.90
33095;DHT22;19459;53.044;8.910;2023-03-03T16:08:03;7.20;99.90
33095;DHT22;19459;53.044;8.910;2023-03-03T16:26:35;7.00;99.90
33095;DHT22;19459;53.044;8.910;2023-03-03T16:29:13;7.00;99.90
33095;DHT22;19459;53.044;8.910;2023-03-03T16:51:50;6.80;99.90
33095;DHT22;19459;53.044;8.910;2023-03-03T16:54:50;6.80;99.90
33095;DHT22;19459;53.044;8.910;2023-03-03T16:57:57;6.80;99.90
33095;DHT22;19459;53.044;8.910;2023-03-03T17:00:57;6.80;99.90
33095;DHT22;19459;53.044;8.910;2023-03-03T17:06:46;6.70;99.90
33095;DHT22;19459;53.044;8.910;2023-03-03T17:23:38;6.70;99.90
33095;DHT22;19459;53.044;8.910;2023-03-03T17:26:29;6.70;99.90
33095;DHT22;19459;53.044;8.910;2023-03-03T17:40:24;6.60;99.90
33095;DHT22;19459;53.044;8.910;2023-03-03T17:43:15;6.60;99.90
33095;DHT22;19459;53.044;8.910;2023-03-03T17:45:46;6.60;99.90
33095;DHT22;19459;53.044;8.910;2023-03-03T17:51:31;6.60;99.90
33095;DHT22;19459;53.044;8.910;2023-03-03T17:54:09;6.50;99.90
33095;DHT22;19459;53.044;8.910;2023-03-03T17:56:46;6.50;99.90
33095;DHT22;19459;53.044;8.910;2023-03-03T18:02:49;6.40;99.90
33095;DHT22;19459;53.044;8.910;2023-03-03T18:05:42;6.50;99.90
33095;DHT22;19459;53.044;8.910;2023-03-03T18:11:33;6.40;99.90
33095;DHT22;19459;53.044;8.910;2023-03-03T18:14:37;6.40;99.90
33095;DHT22;19459;53.044;8.910;2023-03-03T18:17:35;6.40;99.90
33095;DHT22;19459;53.044;8.910;2023-03-03T18:20:20;6.40;99.90
33095;DHT22;19459;53.044;8.910;2023-03-03T18:22:50;6.40;99.90
33095;DHT22;19459;53.044;8.910;2023-03-03T18:25:53;6.30;99.90
33095;DHT22;19459;53.044;8.910;2023-03-03T18:28:22;6.30;99.90
33095;DHT22;19459;53.044;8.910;2023-03-03T18:30:59;6.30;99.90
33095;DHT22;19459;53.044;8.910;2023-03-03T18:33:42;6.30;99.90
33095;DHT22;19459;53.044;8.910;2023-03-03T18:38:53;6.20;99.90
33095;DHT22;19459;53.044;8.910;2023-03-03T18:42:02;6.20;99.90
33095;DHT22;19459;53.044;8.910;2023-03-03T18:44:39;6.20;99.90
33095;DHT22;19459;53.044;8.910;2023-03-03T18:47:06;6.20;99.90
33095;DHT22;19459;53.044;8.910;2023-03-03T18:55:58;6.20;99.90
33095;DHT22;19459;53.044;8.910;2023-03-03T19:04:18;6.10;99.90
33095;DHT22;19459;53.044;8.910;2023-03-03T19:09:19;6.00;99.90
33095;DHT22;19459;53.044;8.910;2023-03-03T19:15:43;6.00;99.90
33095;DHT22;19459;53.044;8.910;2023-03-03T19:18:20;6.00;99.90
33095;DHT22;19459;53.044;8.910;2023-03-03T19:20:55;6.00;99.90
33095;DHT22;19459;53.044;8.910;2023-03-03T19:46:57;6.10;99.90
33095;DHT22;19459;53.044;8.910;2023-03-03T19:55:38;6.00;99.90
33095;DHT22;19459;53.044;8.910;2023-03-03T20:01:40;6.10;99.90
33095;DHT22;19459;53.044;8.910;2023-03-03T20:15:16;6.10;99.90
33095;DHT22;19459;53.044;8.910;2023-03-03T20:20:49;6.10;99.90
33095;DHT22;19459;53.044;8.910;2023-03-03T20:27:02;6.10;99.90
33095;DHT22;19459;53.044;8.910;2023-03-03T20:29:56;6.00;99.90
33095;DHT22;19459;53.044;8.910;2023-03-03T20:43:33;6.00;99.90
33095;DHT22;19459;53.044;8.910;2023-03-03T20:58:18;6.00;99.90
33095;DHT22;19459;53.044;8.910;2023-03-03T21:00:52;6.00;99.90
33095;DHT22;19459;53.044;8.910;2023-03-03T21:03:32;6.00;99.90
33095;DHT22;19459;53.044;8.910;2023-03-03T21:06:02;6.00;99.90
33095;DHT22;19459;53.044;8.910;2023-03-03T21:11:45;6.00;99.90
33095;DHT22;19459;53.044;8.910;2023-03-03T21:14:26;6.00;99.90
33095;DHT22;19459;53.044;8.910;2023-03-03T21:16:57;6.00;99.90
33095;DHT22;19459;53.044;8.910;2023-03-03T21:19:34;6.00;99.90
33095;DHT22;19459;53.044;8.910;2023-03-03T21:22:03;6.00;99.90
33095;DHT22;19459;53.044;8.910;2023-03-03T21:24:56;6.00;99.90
33095;DHT22;19459;53.044;8.910;2023-03-03T21:27:33;6.10;99.90
33095;DHT22;19459;53.044;8.910;2023-03-03T21:30:13;6.10;99.90
33095;DHT22;19459;53.044;8.910;2023-03-03T21:32:40;6.10;99.90
33095;DHT22;19459;53.044;8.910;2023-03-03T21:35:13;6.10;99.90
33095;DHT22;19459;53.044;8.910;2023-03-03T21:38:01;6.10;99.90
33095;DHT22;19459;53.044;8.910;2023-03-03T21:40:28;6.10;99.90
33095;DHT22;19459;53.044;8.910;2023-03-03T21:42:58;6.10;99.90
33095;DHT22;19459;53.044;8.910;2023-03-03T21:45:25;6.10;99.90
33095;DHT22;19459;53.044;8.910;2023-03-03T21:47:52;6.10;99.90
33095;DHT22;19459;53.044;8.910;2023-03-03T21:50:19;6.00;99.90
33095;DHT22;19459;53.044;8.910;2023-03-03T21:52:46;6.10;99.90
33095;DHT22;19459;53.044;8.910;2023-03-03T21:55:12;6.10;99.90
33095;DHT22;19459;53.044;8.910;2023-03-03T21:57:38;6.00;99.90
33095;DHT22;19459;53.044;8.910;2023-03-03T22:00:09;6.10;99.90
33095;DHT22;19459;53.044;8.910;2023-03-03T22:02:35;6.10;99.90
33095;DHT22;19459;53.044;8.910;2023-03-03T22:05:01;6.10;99.90
33095;DHT22;19459;53.044;8.910;2023-03-03T22:07:28;6.10;99.90
33095;DHT22;19459;53.044;8.910;2023-03-03T22:09:54;6.00;99.90
33095;DHT22;19459;53.044;8.910;2023-03-03T22:12:19;6.00;99.90
33095;DHT22;19459;53.044;8.910;2023-03-03T22:14:45;6.10;99.90
33095;DHT22;19459;53.044;8.910;2023-03-03T22:17:11;6.10;99.90
33095;DHT22;19459;53.044;8.910;2023-03-03T22:19:37;6.10;99.90
33095;DHT22;19459;53.044;8.910;2023-03-03T22:22:03;6.10;99.90
33095;DHT22;19459;53.044;8.910;2023-03-03T22:24:29;6.00;99.90
33095;DHT22;19459;53.044;8.910;2023-03-03T22:26:56;6.10;99.90
33095;DHT22;19459;53.044;8.910;2023-03-03T22:29:21;6.10;99.90
33095;DHT22;19459;53.044;8.910;2023-03-03T22:31:50;6.10;99.90
33095;DHT22;19459;53.044;8.910;2023-03-03T22:34:16;6.10;99.90
33095;DHT22;19459;53.044;8.910;2023-03-03T22:36:42;6.10;99.90
33095;DHT22;19459;53.044;8.910;2023-03-03T22:39:08;6.10;99.90
33095;DHT22;19459;53.044;8.910;2023-03-03T22:41:34;6.20;99.90
33095;DHT22;19459;53.044;8.910;2023-03-03T22:44:00;6.10;99.90
33095;DHT22;19459;53.044;8.910;2023-03-03T22:46:26;6.20;99.90
33095;DHT22;19459;53.044;8.910;2023-03-03T22:48:51;6.10;99.90
33095;DHT22;19459;53.044;8.910;2023-03-03T22:51:17;6.10;99.90
33095;DHT22;19459;53.044;8.910;2023-03-03T22:53:46;6.10;99.90
33095;DHT22;19459;53.044;8.910;2023-03-03T22:56:12;6.10;99.90
33095;DHT22;19459;53.044;8.910;2023-03-03T22:58:38;6.10;99.90
33095;DHT22;19459;53.044;8.910;2023-03-03T23:01:04;6.10;99.90
33095;DHT22;19459;53.044;8.910;2023-03-03T23:03:29;6.10;99.90
33095;DHT22;19459;53.044;8.910;2023-03-03T23:05:57;6.10;99.90
33095;DHT22;19459;53.044;8.910;2023-03-03T23:08:23;6.00;99.90
33095;DHT22;19459;53.044;8.910;2023-03-03T23:10:48;6.00;99.90
33095;DHT22;19459;53.044;8.910;2023-03-03T23:13:14;6.00;99.90
33095;DHT22;19459;53.044;8.910;2023-03-03T23:15:40;6.00;99.90